Time;durP1;ratioP1;P1;durP2;ratioP2;P2;SDS_P1;SDS_P2;PMS_P1;PMS_P2;Temp;Humidity;BMP_temperature;BMP_pressure;BME280_temperature;BME280_humidity;BME280_pressure;Samples;Min_cycle;Max_cycle;Signal;HPM_P1;HPM_P2
2021/11/20 00:00:15;;;;;;;36.03;28.73;;;12.80;99.90;;;;;;5057233;28;20171;-87
2021/11/20 00:02:41;;;;;;;34.23;28.70;;;12.80;99.90;;;;;;5057519;28;20224;-87
2021/11/20 00:05:09;;;;;;;33.67;28.57;;;13.00;99.90;;;;;;5058123;28;20165;-86
2021/11/20 00:07:35;;;;;;;32.97;28.30;;;13.00;99.90;;;;;;5059304;28;20176;-84
2021/11/20 00:10:00;;;;;;;34.93;27.67;;;13.00;99.90;;;;;;5060484;28;20206;-86
2021/11/20 00:12:31;;;;;;;31.77;28.17;;;12.70;99.90;;;;;;5064374;28;20540;-86
2021/11/20 00:14:58;;;;;;;32.77;28.13;;;12.60;99.90;;;;;;5063338;28;20173;-84
2021/11/20 00:17:26;;;;;;;31.80;27.80;;;12.50;99.90;;;;;;5060049;28;20169;-84
2021/11/20 00:19:52;;;;;;;35.23;28.37;;;12.50;99.90;;;;;;5056245;28;20177;-87
2021/11/20 00:22:25;;;;;;;31.80;27.70;;;12.70;99.90;;;;;;5056367;28;20608;-85
2021/11/20 00:24:55;;;;;;;36.17;28.93;;;12.80;99.90;;;;;;5058167;28;20241;-86
2021/11/20 00:27:25;;;;;;;33.80;29.53;;;12.80;99.90;;;;;;5037471;28;20176;-85
2021/11/20 00:30:11;;;;;;;32.97;27.73;;;12.70;99.90;;;;;;5053954;28;20218;-85
2021/11/20 00:32:42;;;;;;;32.80;28.57;;;12.70;99.90;;;;;;5053854;28;20541;-86
2021/11/20 00:35:13;;;;;;;31.73;27.83;;;12.70;99.90;;;;;;5054424;28;20183;-85
2021/11/20 00:37:41;;;;;;;35.10;28.60;;;12.60;99.90;;;;;;5058408;28;20261;-86
2021/11/20 00:40:13;;;;;;;30.83;26.83;;;12.70;99.90;;;;;;5055786;28;20200;-86
2021/11/20 00:42:43;;;;;;;33.00;27.83;;;12.80;99.90;;;;;;5039307;28;20192;-87
2021/11/20 00:45:10;;;;;;;33.27;28.63;;;12.90;99.90;;;;;;5064829;28;20173;-84
2021/11/20 00:47:36;;;;;;;31.77;27.23;;;13.00;99.90;;;;;;5075982;28;20176;-83
2021/11/20 00:50:04;;;;;;;30.53;27.07;;;13.10;99.90;;;;;;5081782;28;20216;-84
2021/11/20 00:52:30;;;;;;;33.67;28.83;;;13.00;99.90;;;;;;5082879;28;20165;-85
2021/11/20 00:54:56;;;;;;;33.00;28.50;;;13.10;99.90;;;;;;5076942;28;20181;-87
2021/11/20 00:57:22;;;;;;;31.17;27.07;;;13.10;99.90;;;;;;5069686;28;20226;-84
2021/11/20 00:59:54;;;;;;;31.40;27.83;;;13.00;99.90;;;;;;5063679;28;20263;-86
2021/11/20 01:02:21;;;;;;;33.33;28.77;;;12.90;99.90;;;;;;5065459;28;20262;-85
2021/11/20 01:04:48;;;;;;;32.00;27.90;;;13.00;99.90;;;;;;5064666;28;20177;-87
2021/11/20 01:07:15;;;;;;;32.47;27.57;;;13.10;99.90;;;;;;5062964;28;20872;-86
2021/11/20 01:09:44;;;;;;;31.40;27.67;;;13.00;99.90;;;;;;5061803;28;20217;-86
2021/11/20 01:12:14;;;;;;;32.83;28.20;;;13.20;99.90;;;;;;5062632;28;20185;-87
2021/11/20 01:14:43;;;;;;;33.80;28.53;;;13.20;99.90;;;;;;5063589;28;20681;-85
2021/11/20 01:17:10;;;;;;;31.50;27.03;;;13.10;99.90;;;;;;5061430;28;20168;-85
2021/11/20 01:19:37;;;;;;;35.13;29.07;;;13.10;99.90;;;;;;5060562;28;20191;-86
2021/11/20 01:22:06;;;;;;;31.20;27.70;;;13.00;99.90;;;;;;5061368;28;20171;-86
2021/11/20 01:24:33;;;;;;;32.47;28.43;;;12.90;99.90;;;;;;5062456;28;20185;-85
2021/11/20 01:26:58;;;;;;;31.07;27.67;;;12.80;99.90;;;;;;5060604;28;20169;-87
2021/11/20 01:29:26;;;;;;;34.43;29.63;;;12.90;99.90;;;;;;5061313;28;20287;-84
2021/11/20 01:31:55;;;;;;;33.83;27.97;;;13.00;99.90;;;;;;5060625;28;20663;-85
2021/11/20 01:34:23;;;;;;;33.73;29.43;;;13.00;99.90;;;;;;5061405;28;20223;-86
2021/11/20 01:36:52;;;;;;;34.43;29.17;;;12.90;99.90;;;;;;5062686;28;20254;-86
2021/11/20 01:39:25;;;;;;;32.73;28.97;;;13.00;99.90;;;;;;5063432;28;20174;-83
2021/11/20 01:41:57;;;;;;;35.17;29.67;;;12.90;99.90;;;;;;5074677;28;20203;-84
2021/11/20 01:44:31;;;;;;;32.87;28.57;;;12.70;99.90;;;;;;5078738;28;20186;-83
2021/11/20 01:47:01;;;;;;;34.13;27.53;;;12.60;99.90;;;;;;5061665;28;20181;-85
2021/11/20 01:49:31;;;;;;;34.70;29.40;;;12.50;99.90;;;;;;5060274;28;20643;-84
2021/11/20 01:52:21;;;;;;;35.57;27.90;;;12.40;99.90;;;;;;5060131;28;20664;-85
2021/11/20 01:55:17;;;;;;;31.47;27.30;;;12.40;99.90;;;;;;5047833;28;20190;-84
2021/11/20 01:57:50;;;;;;;34.30;27.57;;;12.50;99.90;;;;;;5051053;28;20174;-84
2021/11/20 02:00:29;;;;;;;33.37;26.20;;;12.70;99.90;;;;;;5060208;28;20645;-85
2021/11/20 02:03:34;;;;;;;30.23;25.80;;;12.70;99.90;;;;;;5062042;28;20182;-85
2021/11/20 02:06:06;;;;;;;31.07;26.00;;;12.50;99.90;;;;;;5058318;28;20184;-86
2021/11/20 02:08:59;;;;;;;31.27;26.03;;;12.50;99.90;;;;;;5056692;28;20276;-85
2021/11/20 02:11:39;;;;;;;28.37;25.30;;;12.60;99.90;;;;;;5056161;28;20185;-85
2021/11/20 02:14:07;;;;;;;30.57;25.57;;;12.60;99.90;;;;;;5056752;28;20306;-85
2021/11/20 02:16:43;;;;;;;29.60;25.10;;;12.60;99.90;;;;;;5056455;28;20180;-85
2021/11/20 02:19:14;;;;;;;28.93;25.43;;;12.60;99.90;;;;;;5055917;28;20261;-85
2021/11/20 02:21:57;;;;;;;30.00;26.10;;;12.80;99.90;;;;;;5067089;28;20549;-85
2021/11/20 02:24:23;;;;;;;28.90;25.63;;;12.70;99.90;;;;;;5073900;28;20219;-85
2021/11/20 02:26:48;;;;;;;30.27;24.80;;;12.60;99.90;;;;;;5058468;28;20220;-86
2021/11/20 02:29:15;;;;;;;30.43;26.57;;;12.60;99.90;;;;;;5063633;28;20303;-86
2021/11/20 02:31:46;;;;;;;30.23;25.53;;;12.40;99.90;;;;;;5079528;28;20157;-83
2021/11/20 02:34:13;;;;;;;32.13;26.30;;;12.30;99.90;;;;;;5079441;28;20173;-83
2021/11/20 02:36:38;;;;;;;31.77;25.97;;;12.30;99.90;;;;;;5079293;28;20165;-83
2021/11/20 02:39:13;;;;;;;30.90;26.03;;;12.30;99.90;;;;;;5075094;28;20208;-83
2021/11/20 02:41:41;;;;;;;31.37;26.10;;;12.20;99.90;;;;;;5070707;28;20163;-82
2021/11/20 02:44:13;;;;;;;28.37;24.63;;;12.20;99.90;;;;;;5060932;28;20181;-83
2021/11/20 02:46:47;;;;;;;28.90;25.07;;;12.30;99.90;;;;;;5056154;28;20178;-86
2021/11/20 02:49:14;;;;;;;27.70;24.73;;;12.30;99.90;;;;;;5055078;28;20673;-84
2021/11/20 02:52:10;;;;;;;27.53;23.83;;;12.40;99.90;;;;;;5038009;28;20204;-82
2021/11/20 02:54:37;;;;;;;27.67;24.00;;;12.30;99.90;;;;;;5051527;28;20192;-84
2021/11/20 02:57:08;;;;;;;29.93;25.03;;;12.40;99.90;;;;;;5054876;28;20177;-84
2021/11/20 02:59:36;;;;;;;28.30;24.07;;;12.50;99.90;;;;;;5054965;28;20519;-84
2021/11/20 03:02:06;;;;;;;28.93;25.43;;;12.60;99.90;;;;;;5057398;28;20702;-82
2021/11/20 03:04:32;;;;;;;29.03;24.20;;;12.60;99.90;;;;;;5055495;28;20184;-83
2021/11/20 03:06:58;;;;;;;28.13;24.97;;;12.50;99.90;;;;;;5054741;28;20211;-84
2021/11/20 03:09:27;;;;;;;28.33;24.13;;;12.40;99.90;;;;;;5055321;28;20207;-86
2021/11/20 03:11:55;;;;;;;29.00;24.60;;;12.40;99.90;;;;;;5056757;28;20196;-87
2021/11/20 03:14:22;;;;;;;26.13;22.87;;;12.40;99.90;;;;;;5057878;28;20176;-85
2021/11/20 03:16:50;;;;;;;25.70;22.53;;;12.40;99.90;;;;;;5068978;28;20225;-85
2021/11/20 03:19:16;;;;;;;25.53;22.83;;;12.30;99.90;;;;;;5078585;28;20171;-85
2021/11/20 03:21:47;;;;;;;26.60;23.13;;;12.40;99.90;;;;;;5073065;28;20634;-85
2021/11/20 03:24:18;;;;;;;25.93;23.23;;;12.50;99.90;;;;;;5067456;28;20208;-86
2021/11/20 03:26:47;;;;;;;25.70;22.90;;;12.60;99.90;;;;;;5056281;28;20165;-85
2021/11/20 03:29:14;;;;;;;25.90;23.07;;;12.70;99.90;;;;;;5057748;28;20208;-85
2021/11/20 03:31:40;;;;;;;27.17;24.27;;;12.80;99.90;;;;;;5057001;28;20169;-84
2021/11/20 03:34:07;;;;;;;27.57;23.30;;;13.00;99.00;;;;;;5055585;28;20262;-86
2021/11/20 03:36:34;;;;;;;26.37;23.40;;;13.10;98.80;;;;;;5060437;28;20263;-86
2021/11/20 03:39:03;;;;;;;26.47;23.70;;;13.00;98.90;;;;;;5056737;28;20181;-83
2021/11/20 03:41:29;;;;;;;26.63;22.97;;;12.80;99.60;;;;;;5061092;28;20211;-85
2021/11/20 03:43:54;;;;;;;24.37;21.17;;;12.80;99.70;;;;;;5066656;28;20181;-82
2021/11/20 03:46:20;;;;;;;25.33;22.17;;;12.70;99.60;;;;;;5065096;28;20157;-84
2021/11/20 03:48:46;;;;;;;24.50;21.77;;;12.80;99.50;;;;;;5063448;28;20684;-81
2021/11/20 03:51:12;;;;;;;24.00;21.50;;;12.90;99.30;;;;;;5068770;28;20177;-80
2021/11/20 03:53:39;;;;;;;23.40;20.90;;;12.80;99.20;;;;;;5069640;28;20223;-82
2021/11/20 03:56:05;;;;;;;24.87;21.33;;;12.70;99.50;;;;;;5073981;28;20240;-82
2021/11/20 03:58:31;;;;;;;23.73;21.33;;;12.70;99.70;;;;;;5073587;28;20565;-82
2021/11/20 04:01:03;;;;;;;23.40;20.90;;;12.60;99.80;;;;;;5068345;28;20196;-85
2021/11/20 04:03:30;;;;;;;24.03;21.53;;;12.80;99.90;;;;;;5065556;28;20179;-84
2021/11/20 04:05:58;;;;;;;22.40;20.03;;;12.80;99.40;;;;;;5060572;28;20172;-87
2021/11/20 04:08:26;;;;;;;23.00;20.47;;;12.90;99.60;;;;;;5062202;28;20157;-85
2021/11/20 04:10:55;;;;;;;21.23;19.00;;;12.60;99.50;;;;;;5059055;28;20165;-82
2021/11/20 04:13:21;;;;;;;21.13;19.00;;;12.50;99.90;;;;;;5057461;28;20192;-82
2021/11/20 04:15:49;;;;;;;19.83;17.73;;;12.50;99.90;;;;;;5056156;28;20177;-84
2021/11/20 04:18:16;;;;;;;21.80;19.10;;;12.70;99.50;;;;;;5055397;28;20270;-83
2021/11/20 04:20:42;;;;;;;21.60;19.30;;;12.40;99.70;;;;;;5059235;28;20264;-82
2021/11/20 04:23:09;;;;;;;19.10;17.10;;;12.30;99.90;;;;;;5056113;28;20250;-84
2021/11/20 04:25:35;;;;;;;18.50;16.50;;;12.30;99.90;;;;;;5055691;28;20240;-82
2021/11/20 04:28:01;;;;;;;18.80;16.83;;;12.20;99.90;;;;;;5062800;28;20267;-85
2021/11/20 04:30:27;;;;;;;20.63;18.47;;;12.30;99.90;;;;;;5062902;28;20232;-83
2021/11/20 04:32:53;;;;;;;20.20;18.00;;;12.40;99.90;;;;;;5064916;28;20176;-83
2021/11/20 04:35:22;;;;;;;20.77;18.57;;;12.50;99.60;;;;;;5059291;28;20177;-85
2021/11/20 04:37:47;;;;;;;21.17;18.97;;;12.40;99.70;;;;;;5055406;28;20543;-84
2021/11/20 04:40:15;;;;;;;21.47;19.17;;;12.50;99.90;;;;;;5057303;28;20173;-83
2021/11/20 04:42:41;;;;;;;18.67;16.77;;;12.30;99.90;;;;;;5053277;28;20279;-85
2021/11/20 04:45:10;;;;;;;20.83;18.37;;;12.40;99.90;;;;;;5053855;28;20549;-84
2021/11/20 04:47:36;;;;;;;20.13;18.00;;;12.50;99.90;;;;;;5054088;28;20219;-86
2021/11/20 04:50:05;;;;;;;21.37;19.07;;;12.40;99.90;;;;;;5054229;28;20207;-85
2021/11/20 04:52:31;;;;;;;20.67;17.60;;;12.40;99.90;;;;;;5055699;28;20696;-85
2021/11/20 04:54:57;;;;;;;19.57;17.47;;;12.30;99.90;;;;;;5053337;28;20212;-84
2021/11/20 04:57:23;;;;;;;19.37;16.67;;;12.10;99.90;;;;;;5056335;28;20574;-86
2021/11/20 04:59:48;;;;;;;18.60;16.23;;;12.00;99.90;;;;;;5055119;28;20272;-85
2021/11/20 05:02:14;;;;;;;18.67;16.67;;;12.10;99.90;;;;;;5067511;28;20165;-85
2021/11/20 05:04:41;;;;;;;18.20;15.60;;;12.00;99.90;;;;;;5073397;28;20211;-83
2021/11/20 05:07:08;;;;;;;18.23;15.80;;;12.10;99.90;;;;;;5059572;28;20173;-85
2021/11/20 05:09:34;;;;;;;18.33;15.57;;;12.10;99.90;;;;;;5055415;28;20240;-84
2021/11/20 05:11:59;;;;;;;17.47;15.30;;;12.00;99.90;;;;;;5053658;28;20208;-86
2021/11/20 05:14:25;;;;;;;17.40;15.40;;;11.90;99.90;;;;;;5055314;28;20211;-84
2021/11/20 05:16:51;;;;;;;18.77;15.50;;;11.90;99.90;;;;;;5053557;28;20217;-87
2021/11/20 05:19:17;;;;;;;16.20;14.50;;;12.00;99.90;;;;;;5052789;28;20185;-85
2021/11/20 05:21:43;;;;;;;17.47;14.47;;;11.90;99.90;;;;;;5053723;28;20180;-85
2021/11/20 05:24:09;;;;;;;16.20;13.90;;;11.80;99.90;;;;;;5053264;28;20201;-84
2021/11/20 05:26:35;;;;;;;20.53;15.60;;;11.90;99.90;;;;;;5053478;28;20548;-85
2021/11/20 05:29:07;;;;;;;17.80;14.40;;;11.90;99.90;;;;;;5055763;28;20213;-85
2021/11/20 05:31:35;;;;;;;19.60;15.00;;;11.80;99.90;;;;;;5056425;28;20180;-84
2021/11/20 05:34:02;;;;;;;18.07;14.80;;;11.90;99.90;;;;;;5070593;28;20184;-86
2021/11/20 05:36:30;;;;;;;16.97;14.53;;;11.80;99.90;;;;;;5066670;28;20195;-86
2021/11/20 05:38:58;;;;;;;17.17;13.83;;;11.80;99.90;;;;;;5058546;28;20180;-86
2021/11/20 05:41:25;;;;;;;17.27;13.97;;;11.80;99.90;;;;;;5057419;28;20173;-85
2021/11/20 05:43:51;;;;;;;17.70;14.97;;;12.00;99.90;;;;;;5057007;28;20181;-86
2021/11/20 05:46:19;;;;;;;17.73;14.07;;;11.80;99.90;;;;;;5057700;28;20188;-87
2021/11/20 05:48:45;;;;;;;16.67;13.43;;;11.80;99.90;;;;;;5058336;28;20212;-85
2021/11/20 05:51:11;;;;;;;18.30;13.73;;;11.90;99.90;;;;;;5062523;28;20252;-86
2021/11/20 05:53:37;;;;;;;15.50;13.43;;;11.80;99.90;;;;;;5067699;28;20187;-83
2021/11/20 05:56:04;;;;;;;19.97;14.13;;;11.80;99.90;;;;;;5078893;28;20169;-85
2021/11/20 05:58:30;;;;;;;18.40;13.57;;;11.80;99.90;;;;;;5080358;28;20198;-82
2021/11/20 06:01:01;;;;;;;15.53;12.80;;;11.80;99.90;;;;;;5079777;28;20181;-85
2021/11/20 06:03:30;;;;;;;15.80;12.97;;;11.60;99.90;;;;;;5079553;28;20153;-82
2021/11/20 06:05:59;;;;;;;16.33;13.50;;;11.70;99.90;;;;;;5078353;28;20157;-82
2021/11/20 06:08:25;;;;;;;15.20;12.43;;;11.70;99.90;;;;;;5078354;28;20169;-84
2021/11/20 06:10:53;;;;;;;16.17;13.07;;;11.60;99.90;;;;;;5073860;28;20161;-86
2021/11/20 06:13:19;;;;;;;15.40;12.97;;;11.60;99.90;;;;;;5077771;28;20187;-83
2021/11/20 06:15:45;;;;;;;16.33;12.60;;;11.70;99.90;;;;;;5077349;28;20193;-80
2021/11/20 06:18:12;;;;;;;17.30;12.87;;;11.70;99.90;;;;;;5073697;28;20191;-85
2021/11/20 06:20:40;;;;;;;16.40;14.00;;;11.80;99.90;;;;;;5078704;28;20192;-84
2021/11/20 06:23:06;;;;;;;16.27;14.00;;;11.80;99.50;;;;;;5079613;28;20181;-84
2021/11/20 06:25:32;;;;;;;15.70;12.87;;;11.90;98.80;;;;;;5065719;28;20173;-82
2021/11/20 06:28:01;;;;;;;16.43;12.87;;;11.90;98.50;;;;;;5068597;28;20192;-86
2021/11/20 06:30:32;;;;;;;15.37;12.47;;;11.80;98.80;;;;;;5065433;28;20219;-85
2021/11/20 06:33:00;;;;;;;14.20;12.30;;;11.70;98.80;;;;;;5058897;28;20165;-85
2021/11/20 06:35:30;;;;;;;15.97;12.30;;;11.70;98.50;;;;;;5059672;28;20189;-85
2021/11/20 06:37:57;;;;;;;14.10;12.20;;;11.70;98.50;;;;;;5057697;28;20161;-86
2021/11/20 06:40:28;;;;;;;14.73;11.93;;;11.70;98.50;;;;;;5059606;28;20547;-83
2021/11/20 06:42:56;;;;;;;15.33;12.70;;;11.70;98.30;;;;;;5054587;28;20177;-84
2021/11/20 06:45:30;;;;;;;14.70;12.47;;;11.70;98.00;;;;;;5056530;28;20218;-84
2021/11/20 06:47:56;;;;;;;14.50;12.70;;;11.60;97.70;;;;;;5054928;28;20177;-84
2021/11/20 06:50:22;;;;;;;14.23;12.17;;;11.60;97.90;;;;;;5054457;28;20213;-83
2021/11/20 06:52:49;;;;;;;13.00;11.30;;;11.80;97.60;;;;;;5056104;28;20526;-82
2021/11/20 06:55:17;;;;;;;15.10;12.70;;;11.90;96.70;;;;;;5056221;28;20183;-84
2021/11/20 07:00:27;;;;;;;13.63;11.53;;;11.90;96.10;;;;;;5059152;28;20716;-85
2021/11/20 07:03:11;;;;;;;14.90;12.33;;;11.80;95.50;;;;;;5059041;28;20207;-85
2021/11/20 07:05:42;;;;;;;15.63;12.17;;;11.90;95.00;;;;;;5056291;28;20173;-85
2021/11/20 07:08:09;;;;;;;14.77;11.70;;;11.80;96.30;;;;;;5057012;28;20206;-85
2021/11/20 07:10:36;;;;;;;16.37;13.63;;;11.80;95.60;;;;;;5056499;28;20216;-85
2021/11/20 07:13:06;;;;;;;12.80;11.43;;;11.90;95.40;;;;;;5055649;28;20621;-85
2021/11/20 07:15:32;;;;;;;14.07;12.57;;;11.80;95.20;;;;;;5057665;28;20534;-87
2021/11/20 07:17:58;;;;;;;15.83;12.37;;;11.80;95.20;;;;;;5057228;28;20657;-86
2021/11/20 07:20:27;;;;;;;15.53;12.77;;;11.90;95.00;;;;;;5040362;28;20177;-86
2021/11/20 07:22:55;;;;;;;14.37;12.40;;;11.80;95.50;;;;;;5055861;28;20207;-86
2021/11/20 07:25:22;;;;;;;14.53;12.20;;;11.60;96.10;;;;;;5056632;28;20169;-85
2021/11/20 07:27:48;;;;;;;14.33;12.57;;;11.60;96.50;;;;;;5058061;28;20177;-86
2021/11/20 07:30:19;;;;;;;14.70;12.63;;;11.70;96.40;;;;;;5055475;28;20216;-85
2021/11/20 07:32:46;;;;;;;12.97;11.47;;;11.60;96.20;;;;;;5055832;28;20580;-85
2021/11/20 07:35:21;;;;;;;16.13;13.77;;;11.80;96.30;;;;;;5055405;28;20185;-85
2021/11/20 07:37:47;;;;;;;14.37;12.87;;;11.90;94.90;;;;;;5055153;28;20573;-85
2021/11/20 07:40:13;;;;;;;13.53;12.10;;;11.90;94.70;;;;;;5056309;28;20173;-87
2021/11/20 07:42:39;;;;;;;14.83;13.17;;;11.80;95.10;;;;;;5054656;28;20189;-85
2021/11/20 07:45:05;;;;;;;13.27;11.87;;;11.80;95.20;;;;;;5056376;28;20172;-87
2021/11/20 07:47:31;;;;;;;14.57;12.30;;;11.80;95.40;;;;;;5055836;28;20275;-84
2021/11/20 07:49:57;;;;;;;13.70;11.60;;;11.90;94.90;;;;;;5056082;28;20378;-84
2021/11/20 07:52:23;;;;;;;15.17;12.07;;;11.90;94.90;;;;;;5056141;28;20601;-84
2021/11/20 07:54:48;;;;;;;15.03;12.40;;;11.80;95.20;;;;;;5055937;28;20710;-86
2021/11/20 07:57:14;;;;;;;13.77;12.27;;;11.90;95.80;;;;;;5054371;28;20197;-83
2021/11/20 07:59:40;;;;;;;14.37;12.60;;;11.70;96.10;;;;;;5054204;28;20655;-82
2021/11/20 08:02:07;;;;;;;14.33;11.57;;;11.60;97.00;;;;;;5053502;28;20195;-82
2021/11/20 08:04:38;;;;;;;13.00;10.60;;;11.50;97.10;;;;;;5055674;28;20172;-83
2021/11/20 08:07:05;;;;;;;15.30;11.13;;;11.40;97.70;;;;;;5057776;28;20165;-82
2021/11/20 08:09:32;;;;;;;13.43;11.33;;;11.40;97.80;;;;;;5063517;28;20215;-84
2021/11/20 08:11:59;;;;;;;15.03;11.40;;;11.50;97.90;;;;;;5053793;28;20275;-87
2021/11/20 08:14:26;;;;;;;13.83;11.37;;;11.40;98.00;;;;;;5057225;28;20199;-86
2021/11/20 08:16:53;;;;;;;13.23;11.87;;;11.40;98.00;;;;;;5057651;28;20641;-85
2021/11/20 08:19:18;;;;;;;14.57;12.03;;;11.50;98.10;;;;;;5054420;28;20302;-85
2021/11/20 08:21:44;;;;;;;14.27;12.00;;;11.60;97.60;;;;;;5062061;28;20192;-85
2021/11/20 08:24:10;;;;;;;15.40;12.07;;;11.80;95.30;;;;;;5087649;28;20684;-84
2021/11/20 08:26:37;;;;;;;15.40;12.90;;;11.80;94.60;;;;;;5061874;28;20173;-84
2021/11/20 08:29:12;;;;;;;16.10;12.83;;;11.70;95.80;;;;;;5072157;28;20216;-86
2021/11/20 08:31:44;;;;;;;14.27;12.77;;;11.60;96.60;;;;;;5065336;28;20267;-85
2021/11/20 08:34:15;;;;;;;14.50;12.90;;;11.60;96.60;;;;;;5055039;28;20562;-85
2021/11/20 08:36:42;;;;;;;13.37;12.00;;;11.50;96.80;;;;;;5053465;28;20204;-84
2021/11/20 08:39:11;;;;;;;14.20;12.57;;;11.60;97.00;;;;;;5056020;28;20200;-86
2021/11/20 08:41:36;;;;;;;13.80;12.17;;;11.70;96.40;;;;;;5055676;28;20664;-85
2021/11/20 08:44:03;;;;;;;14.37;12.47;;;11.90;95.70;;;;;;5058917;28;20176;-84
2021/11/20 08:46:30;;;;;;;13.70;12.20;;;12.00;94.70;;;;;;5064641;28;20203;-85
2021/11/20 08:48:57;;;;;;;13.17;11.80;;;11.80;94.70;;;;;;5063076;28;20211;-84
2021/11/20 08:51:23;;;;;;;16.13;12.17;;;11.70;95.40;;;;;;5040814;28;20177;-82
2021/11/20 08:53:51;;;;;;;15.23;12.00;;;11.70;95.90;;;;;;5062870;28;20188;-86
2021/11/20 08:56:18;;;;;;;12.93;11.63;;;11.80;96.10;;;;;;5058018;28;20839;-85
2021/11/20 08:58:45;;;;;;;13.80;12.30;;;11.60;95.30;;;;;;5053102;28;20184;-84
2021/11/20 09:01:29;;;;;;;13.90;12.37;;;11.70;94.10;;;;;;5054916;28;20644;-84
2021/11/20 09:04:06;;;;;;;13.60;12.20;;;11.70;94.70;;;;;;5037937;28;20258;-84
2021/11/20 09:06:57;;;;;;;13.80;11.73;;;11.80;94.30;;;;;;5056351;28;20253;-85
2021/11/20 09:09:48;;;;;;;13.07;11.33;;;11.70;94.70;;;;;;5052079;28;20244;-86
2021/11/20 09:12:38;;;;;;;14.00;11.87;;;11.70;94.80;;;;;;5045779;28;20188;-83
2021/11/20 09:15:17;;;;;;;14.57;12.97;;;11.50;95.70;;;;;;5053915;28;20188;-85
2021/11/20 09:17:44;;;;;;;14.60;12.57;;;11.50;96.10;;;;;;5054769;28;20184;-87
2021/11/20 09:20:10;;;;;;;14.93;13.27;;;11.40;96.30;;;;;;5075121;28;20168;-83
2021/11/20 09:22:36;;;;;;;15.80;12.73;;;11.40;96.70;;;;;;5070962;28;20192;-84
2021/11/20 09:25:04;;;;;;;13.63;12.13;;;11.50;97.00;;;;;;5056551;28;20806;-84
2021/11/20 09:27:31;;;;;;;13.70;12.27;;;11.50;96.60;;;;;;5061680;28;20180;-84
2021/11/20 09:29:59;;;;;;;15.70;12.37;;;11.60;96.30;;;;;;5075252;28;20224;-84
2021/11/20 09:32:25;;;;;;;15.23;12.47;;;11.50;95.80;;;;;;5074739;28;20203;-84
2021/11/20 09:34:51;;;;;;;13.80;12.13;;;11.60;96.50;;;;;;5077813;28;20217;-85
2021/11/20 09:37:17;;;;;;;14.57;12.13;;;11.40;96.50;;;;;;5063846;28;20196;-84
2021/11/20 09:39:43;;;;;;;14.40;12.40;;;11.50;95.90;;;;;;5054982;28;20192;-85
2021/11/20 09:42:14;;;;;;;16.33;12.43;;;11.50;95.80;;;;;;5056516;28;20199;-85
2021/11/20 09:44:47;;;;;;;13.20;11.77;;;11.50;95.50;;;;;;5063738;28;20660;-85
2021/11/20 09:47:20;;;;;;;14.10;12.40;;;11.60;95.00;;;;;;5038464;28;20174;-83
2021/11/20 09:49:49;;;;;;;13.90;12.40;;;11.60;95.30;;;;;;5035980;28;20232;-84
2021/11/20 09:52:16;;;;;;;13.73;12.00;;;11.60;95.20;;;;;;5038928;28;20240;-86
2021/11/20 09:54:43;;;;;;;12.40;11.00;;;11.50;95.60;;;;;;5045943;28;20592;-86
2021/11/20 09:57:13;;;;;;;14.97;12.70;;;11.40;96.10;;;;;;5058303;28;20173;-86
2021/11/20 09:59:50;;;;;;;14.47;12.90;;;11.40;96.50;;;;;;5056728;28;20178;-85
2021/11/20 10:02:26;;;;;;;15.10;11.47;;;11.50;96.50;;;;;;5051861;28;20211;-84
2021/11/20 10:05:04;;;;;;;14.13;11.00;;;11.20;96.70;;;;;;5051760;28;20166;-84
2021/11/20 10:08:02;;;;;;;13.93;11.57;;;11.30;96.90;;;;;;5054387;28;20271;-84
2021/11/20 10:10:57;;;;;;;13.57;10.97;;;11.10;97.00;;;;;;5050757;28;20284;-85
2021/11/20 10:13:26;;;;;;;12.97;11.30;;;11.10;97.30;;;;;;5054387;28;20189;-87
2021/11/20 10:16:16;;;;;;;12.60;10.53;;;11.10;97.30;;;;;;5058302;28;20672;-87
2021/11/20 10:19:06;;;;;;;14.73;11.80;;;11.20;96.80;;;;;;5054320;28;20186;-87
2021/11/20 10:21:39;;;;;;;12.27;10.93;;;11.20;96.40;;;;;;5037141;28;20166;-89
2021/11/20 10:24:14;;;;;;;12.13;10.30;;;11.30;95.40;;;;;;5043006;28;20561;-88
2021/11/20 10:26:56;;;;;;;13.23;11.83;;;11.20;95.60;;;;;;5058699;28;20750;-87
2021/11/20 10:30:01;;;;;;;12.40;11.00;;;11.10;96.20;;;;;;5057714;28;20672;-86
2021/11/20 10:32:37;;;;;;;11.97;10.67;;;11.10;96.30;;;;;;5059902;28;20161;-87
2021/11/20 10:35:25;;;;;;;13.67;12.17;;;11.20;96.30;;;;;;5058838;28;20506;-84
2021/11/20 10:38:00;;;;;;;13.87;12.07;;;11.30;95.50;;;;;;5056353;28;20227;-89
2021/11/20 10:40:45;;;;;;;14.63;12.43;;;11.30;94.80;;;;;;5052425;28;20177;-91
2021/11/20 10:43:13;;;;;;;14.97;12.17;;;11.30;95.30;;;;;;5060301;28;20191;-85
2021/11/20 10:45:45;;;;;;;14.70;12.90;;;11.30;95.80;;;;;;5042472;28;20204;-84
2021/11/20 10:48:19;;;;;;;14.13;12.50;;;11.30;95.40;;;;;;5040138;28;20196;-84
2021/11/20 10:50:52;;;;;;;16.33;13.10;;;11.20;96.00;;;;;;5041913;28;20894;-88
2021/11/20 10:53:46;;;;;;;16.17;13.97;;;11.10;96.20;;;;;;5051526;28;20153;-83
2021/11/20 10:56:46;;;;;;;15.47;13.17;;;11.00;96.60;;;;;;5073376;28;20244;-85
2021/11/20 10:59:20;;;;;;;16.60;14.37;;;11.00;97.00;;;;;;5071495;28;20188;-83
2021/11/20 11:02:01;;;;;;;17.47;14.20;;;10.90;98.00;;;;;;5072448;28;20217;-83
2021/11/20 11:05:00;;;;;;;17.70;14.93;;;11.10;97.60;;;;;;5064375;28;20223;-85
2021/11/20 11:08:10;;;;;;;17.27;14.97;;;11.10;96.60;;;;;;5058805;28;20181;-85
2021/11/20 11:10:48;;;;;;;15.60;13.60;;;11.10;96.60;;;;;;5056358;28;20196;-83
2021/11/20 11:13:46;;;;;;;17.90;15.23;;;11.00;96.60;;;;;;5069042;28;20259;-86
2021/11/20 11:16:30;;;;;;;19.63;16.93;;;10.90;97.50;;;;;;5057102;28;20161;-85
2021/11/20 11:19:35;;;;;;;19.67;17.57;;;10.80;98.70;;;;;;5056024;28;20185;-86
2021/11/20 11:22:24;;;;;;;22.83;20.27;;;10.70;98.60;;;;;;5022589;28;20181;-86
2021/11/20 11:25:21;;;;;;;21.67;18.33;;;10.80;98.80;;;;;;5036113;28;20227;-87
2021/11/20 11:28:09;;;;;;;24.03;19.07;;;10.90;98.10;;;;;;5037847;28;20165;-85
2021/11/20 11:31:10;;;;;;;22.63;19.33;;;10.90;98.00;;;;;;5041499;28;20209;-86
2021/11/20 11:33:43;;;;;;;20.80;18.30;;;11.00;97.50;;;;;;5037536;28;20303;-87
2021/11/20 11:36:34;;;;;;;22.40;19.60;;;11.10;96.90;;;;;;5056080;28;20246;-86
2021/11/20 11:39:39;;;;;;;22.87;19.37;;;11.10;96.30;;;;;;5056122;28;20169;-86
2021/11/20 11:42:11;;;;;;;22.60;20.07;;;11.00;96.50;;;;;;5034923;28;20248;-85
2021/11/20 11:44:58;;;;;;;25.93;20.87;;;10.90;97.20;;;;;;5057165;28;20192;-85
2021/11/20 11:48:12;;;;;;;25.53;21.50;;;10.80;97.90;;;;;;5072974;28;20561;-86
2021/11/20 11:51:09;;;;;;;27.00;21.93;;;10.70;98.10;;;;;;5057267;28;20278;-85
2021/11/20 11:54:12;;;;;;;29.37;21.97;;;10.70;98.00;;;;;;5061793;28;20185;-86
2021/11/20 11:56:42;;;;;;;24.90;21.93;;;10.70;97.60;;;;;;5020345;28;20226;-85
2021/11/20 11:59:34;;;;;;;29.50;22.87;;;10.70;98.10;;;;;;5053906;28;20268;-85
2021/11/20 12:02:31;;;;;;;25.90;21.23;;;10.60;98.20;;;;;;5054104;28;20200;-85
2021/11/20 12:05:19;;;;;;;24.83;21.00;;;10.70;98.20;;;;;;5060027;28;20157;-82
2021/11/20 12:07:50;;;;;;;22.57;19.50;;;10.60;97.90;;;;;;5083452;28;20225;-82
2021/11/20 12:10:16;;;;;;;20.70;18.37;;;10.50;98.20;;;;;;5065382;28;20711;-87
2021/11/20 12:12:54;;;;;;;21.17;17.97;;;10.50;98.50;;;;;;5055536;28;20303;-87
2021/11/20 12:15:31;;;;;;;21.70;17.63;;;10.50;98.80;;;;;;5039000;28;20173;-87
2021/11/20 12:18:15;;;;;;;20.73;17.07;;;10.70;96.40;;;;;;5054522;28;20179;-88
2021/11/20 12:20:57;;;;;;;23.67;19.23;;;10.70;95.60;;;;;;5053750;28;20184;-87
2021/11/20 12:23:49;;;;;;;25.47;20.63;;;10.60;95.80;;;;;;5058163;28;20177;-87
2021/11/20 12:26:27;;;;;;;25.73;19.63;;;10.60;96.70;;;;;;5059512;28;20179;-83
2021/11/20 12:28:53;;;;;;;23.47;19.17;;;10.70;96.40;;;;;;5064387;28;20200;-85
2021/11/20 12:31:21;;;;;;;23.33;18.90;;;10.80;96.20;;;;;;5058950;28;20173;-86
2021/11/20 12:34:18;;;;;;;27.77;21.93;;;10.70;96.20;;;;;;5058253;28;20181;-86
2021/11/20 12:37:02;;;;;;;30.10;21.57;;;10.70;95.80;;;;;;5064635;28;20183;-85
2021/11/20 12:39:28;;;;;;;28.43;22.43;;;10.60;96.10;;;;;;5053137;28;20508;-84
2021/11/20 12:42:20;;;;;;;31.40;23.20;;;10.60;96.70;;;;;;5053211;28;20234;-86
2021/11/20 12:45:05;;;;;;;30.00;22.60;;;10.50;97.20;;;;;;5053278;28;20203;-84
2021/11/20 12:48:19;;;;;;;30.37;23.20;;;10.60;97.00;;;;;;5052123;28;20181;-86
2021/11/20 12:50:56;;;;;;;36.07;26.80;;;10.60;96.80;;;;;;4992890;28;20702;-84
2021/11/20 12:53:36;;;;;;;33.70;26.23;;;10.50;97.00;;;;;;5044063;28;20265;-86
2021/11/20 12:56:17;;;;;;;34.13;26.30;;;10.50;97.30;;;;;;5073512;28;20179;-86